sensor_id;sensor_type;location;lat;lon;timestamp;P1;durP1;ratioP1;P2;durP2;ratioP2
70975;SDS011;58635;51.198;6.010;2023-03-17T00:01:47;9.52;;;2.53;;
70975;SDS011;58635;51.198;6.010;2023-03-17T00:04:15;7.82;;;2.40;;
70975;SDS011;58635;51.198;6.010;2023-03-17T00:06:43;4.40;;;2.10;;
70975;SDS011;58635;51.198;6.010;2023-03-17T00:09:12;4.30;;;2.08;;
70975;SDS011;58635;51.198;6.010;2023-03-17T00:11:39;5.28;;;2.22;;
70975;SDS011;58635;51.198;6.010;2023-03-17T00:14:05;6.35;;;1.90;;
70975;SDS011;58635;51.198;6.010;2023-03-17T00:16:34;5.18;;;2.38;;
70975;SDS011;58635;51.198;6.010;2023-03-17T00:19:02;4.43;;;2.25;;
70975;SDS011;58635;51.198;6.010;2023-03-17T00:21:29;4.55;;;2.30;;
70975;SDS011;58635;51.198;6.010;2023-03-17T00:23:56;5.93;;;2.20;;
70975;SDS011;58635;51.198;6.010;2023-03-17T00:26:23;3.92;;;2.00;;
70975;SDS011;58635;51.198;6.010;2023-03-17T00:28:49;4.68;;;2.30;;
70975;SDS011;58635;51.198;6.010;2023-03-17T00:31:16;6.88;;;2.50;;
70975;SDS011;58635;51.198;6.010;2023-03-17T00:33:45;5.07;;;2.33;;
70975;SDS011;58635;51.198;6.010;2023-03-17T00:36:16;4.40;;;2.35;;
70975;SDS011;58635;51.198;6.010;2023-03-17T00:38:44;6.05;;;2.25;;
70975;SDS011;58635;51.198;6.010;2023-03-17T00:41:10;6.82;;;2.60;;
70975;SDS011;58635;51.198;6.010;2023-03-17T00:43:36;8.07;;;2.22;;
70975;SDS011;58635;51.198;6.010;2023-03-17T00:46:07;4.90;;;1.98;;
70975;SDS011;58635;51.198;6.010;2023-03-17T00:48:36;5.10;;;2.00;;
70975;SDS011;58635;51.198;6.010;2023-03-17T00:51:02;7.28;;;2.15;;
70975;SDS011;58635;51.198;6.010;2023-03-17T00:53:28;5.68;;;2.00;;
70975;SDS011;58635;51.198;6.010;2023-03-17T00:55:53;6.22;;;1.98;;
70975;SDS011;58635;51.198;6.010;2023-03-17T00:58:23;4.90;;;2.00;;
70975;SDS011;58635;51.198;6.010;2023-03-17T01:00:51;5.35;;;2.08;;
70975;SDS011;58635;51.198;6.010;2023-03-17T01:03:18;6.70;;;2.28;;
70975;SDS011;58635;51.198;6.010;2023-03-17T01:05:44;7.88;;;2.53;;
70975;SDS011;58635;51.198;6.010;2023-03-17T01:08:10;5.32;;;2.50;;
70975;SDS011;58635;51.198;6.010;2023-03-17T01:10:36;6.63;;;2.33;;
70975;SDS011;58635;51.198;6.010;2023-03-17T01:13:02;8.52;;;2.15;;
70975;SDS011;58635;51.198;6.010;2023-03-17T01:15:29;8.35;;;2.10;;
70975;SDS011;58635;51.198;6.010;2023-03-17T01:17:56;5.15;;;1.83;;
70975;SDS011;58635;51.198;6.010;2023-03-17T01:20:27;4.82;;;1.70;;
70975;SDS011;58635;51.198;6.010;2023-03-17T01:22:56;4.75;;;1.52;;
70975;SDS011;58635;51.198;6.010;2023-03-17T01:25:22;5.15;;;1.75;;
70975;SDS011;58635;51.198;6.010;2023-03-17T01:27:48;3.47;;;1.35;;
70975;SDS011;58635;51.198;6.010;2023-03-17T01:30:20;5.43;;;1.83;;
70975;SDS011;58635;51.198;6.010;2023-03-17T01:33:02;5.15;;;1.75;;
70975;SDS011;58635;51.198;6.010;2023-03-17T01:35:28;4.25;;;1.70;;
70975;SDS011;58635;51.198;6.010;2023-03-17T01:37:55;4.45;;;1.40;;
70975;SDS011;58635;51.198;6.010;2023-03-17T01:40:23;3.67;;;1.48;;
70975;SDS011;58635;51.198;6.010;2023-03-17T01:42:53;3.78;;;1.70;;
70975;SDS011;58635;51.198;6.010;2023-03-17T01:48:31;4.40;;;1.70;;
70975;SDS011;58635;51.198;6.010;2023-03-17T01:51:01;3.08;;;1.50;;
70975;SDS011;58635;51.198;6.010;2023-03-17T01:53:28;4.07;;;1.70;;
70975;SDS011;58635;51.198;6.010;2023-03-17T01:55:54;5.55;;;1.98;;
70975;SDS011;58635;51.198;6.010;2023-03-17T01:58:21;5.15;;;1.88;;
70975;SDS011;58635;51.198;6.010;2023-03-17T02:00:49;4.78;;;2.10;;
70975;SDS011;58635;51.198;6.010;2023-03-17T02:03:15;3.88;;;2.00;;
70975;SDS011;58635;51.198;6.010;2023-03-17T02:05:41;5.82;;;2.13;;
70975;SDS011;58635;51.198;6.010;2023-03-17T02:08:11;4.25;;;2.05;;
70975;SDS011;58635;51.198;6.010;2023-03-17T02:10:38;4.30;;;2.08;;
70975;SDS011;58635;51.198;6.010;2023-03-17T02:13:06;3.63;;;2.30;;
70975;SDS011;58635;51.198;6.010;2023-03-17T02:15:38;3.88;;;2.13;;
70975;SDS011;58635;51.198;6.010;2023-03-17T02:18:05;3.85;;;1.98;;
70975;SDS011;58635;51.198;6.010;2023-03-17T02:22:57;7.70;;;2.35;;
70975;SDS011;58635;51.198;6.010;2023-03-17T02:25:25;6.53;;;2.40;;
70975;SDS011;58635;51.198;6.010;2023-03-17T02:27:54;3.85;;;2.35;;
70975;SDS011;58635;51.198;6.010;2023-03-17T02:30:24;4.07;;;1.90;;
70975;SDS011;58635;51.198;6.010;2023-03-17T02:32:50;5.68;;;1.92;;
70975;SDS011;58635;51.198;6.010;2023-03-17T02:35:16;3.47;;;2.10;;
70975;SDS011;58635;51.198;6.010;2023-03-17T02:37:43;6.57;;;2.20;;
70975;SDS011;58635;51.198;6.010;2023-03-17T02:40:10;4.32;;;2.13;;
70975;SDS011;58635;51.198;6.010;2023-03-17T02:42:37;6.68;;;2.08;;
70975;SDS011;58635;51.198;6.010;2023-03-17T02:45:04;5.22;;;2.63;;
70975;SDS011;58635;51.198;6.010;2023-03-17T02:47:30;5.70;;;2.45;;
70975;SDS011;58635;51.198;6.010;2023-03-17T02:49:57;5.25;;;2.75;;
70975;SDS011;58635;51.198;6.010;2023-03-17T02:52:23;6.22;;;2.67;;
70975;SDS011;58635;51.198;6.010;2023-03-17T02:54:49;6.55;;;2.80;;
70975;SDS011;58635;51.198;6.010;2023-03-17T02:57:14;6.28;;;3.20;;
70975;SDS011;58635;51.198;6.010;2023-03-17T02:59:40;5.32;;;2.42;;
70975;SDS011;58635;51.198;6.010;2023-03-17T03:02:05;5.95;;;2.22;;
70975;SDS011;58635;51.198;6.010;2023-03-17T03:04:31;5.15;;;2.42;;
70975;SDS011;58635;51.198;6.010;2023-03-17T03:06:56;3.97;;;1.95;;
70975;SDS011;58635;51.198;6.010;2023-03-17T03:09:22;6.18;;;2.33;;
70975;SDS011;58635;51.198;6.010;2023-03-17T03:11:48;4.57;;;2.08;;
70975;SDS011;58635;51.198;6.010;2023-03-17T03:14:13;3.92;;;1.80;;
70975;SDS011;58635;51.198;6.010;2023-03-17T03:16:39;4.47;;;1.80;;
70975;SDS011;58635;51.198;6.010;2023-03-17T03:19:05;3.42;;;1.85;;
70975;SDS011;58635;51.198;6.010;2023-03-17T03:21:31;4.07;;;2.00;;
70975;SDS011;58635;51.198;6.010;2023-03-17T03:23:57;5.22;;;2.00;;
70975;SDS011;58635;51.198;6.010;2023-03-17T03:26:22;2.95;;;1.60;;
70975;SDS011;58635;51.198;6.010;2023-03-17T03:28:48;5.75;;;2.13;;
70975;SDS011;58635;51.198;6.010;2023-03-17T03:31:14;3.08;;;1.50;;
70975;SDS011;58635;51.198;6.010;2023-03-17T03:33:40;3.17;;;1.70;;
70975;SDS011;58635;51.198;6.010;2023-03-17T03:36:06;6.60;;;2.00;;
70975;SDS011;58635;51.198;6.010;2023-03-17T03:38:32;4.85;;;1.80;;
70975;SDS011;58635;51.198;6.010;2023-03-17T03:40:58;5.40;;;2.00;;
70975;SDS011;58635;51.198;6.010;2023-03-17T03:43:23;3.95;;;1.90;;
70975;SDS011;58635;51.198;6.010;2023-03-17T03:45:49;6.18;;;2.28;;
70975;SDS011;58635;51.198;6.010;2023-03-17T03:48:16;7.20;;;2.10;;
70975;SDS011;58635;51.198;6.010;2023-03-17T03:50:41;4.65;;;2.50;;
70975;SDS011;58635;51.198;6.010;2023-03-17T03:53:07;6.18;;;2.30;;
70975;SDS011;58635;51.198;6.010;2023-03-17T03:55:32;4.45;;;2.40;;
70975;SDS011;58635;51.198;6.010;2023-03-17T03:57:58;6.28;;;2.40;;
70975;SDS011;58635;51.198;6.010;2023-03-17T04:00:23;7.05;;;2.80;;
70975;SDS011;58635;51.198;6.010;2023-03-17T04:02:49;5.80;;;2.50;;
70975;SDS011;58635;51.198;6.010;2023-03-17T04:05:15;5.93;;;2.60;;
70975;SDS011;58635;51.198;6.010;2023-03-17T04:07:42;3.80;;;2.33;;
70975;SDS011;58635;51.198;6.010;2023-03-17T04:10:09;6.05;;;2.55;;
70975;SDS011;58635;51.198;6.010;2023-03-17T04:12:36;8.25;;;2.70;;
70975;SDS011;58635;51.198;6.010;2023-03-17T04:15:01;4.38;;;2.28;;
70975;SDS011;58635;51.198;6.010;2023-03-17T04:17:27;5.13;;;2.20;;
70975;SDS011;58635;51.198;6.010;2023-03-17T04:19:52;4.95;;;2.70;;
70975;SDS011;58635;51.198;6.010;2023-03-17T04:22:18;7.40;;;2.63;;
70975;SDS011;58635;51.198;6.010;2023-03-17T04:24:43;4.47;;;2.45;;
70975;SDS011;58635;51.198;6.010;2023-03-17T04:27:08;5.68;;;2.67;;
70975;SDS011;58635;51.198;6.010;2023-03-17T04:29:34;5.35;;;2.58;;
70975;SDS011;58635;51.198;6.010;2023-03-17T04:32:00;7.18;;;2.17;;
70975;SDS011;58635;51.198;6.010;2023-03-17T04:34:26;7.50;;;2.70;;
70975;SDS011;58635;51.198;6.010;2023-03-17T04:36:52;6.72;;;2.53;;
70975;SDS011;58635;51.198;6.010;2023-03-17T04:39:18;7.25;;;2.72;;
70975;SDS011;58635;51.198;6.010;2023-03-17T04:41:43;5.70;;;2.50;;
70975;SDS011;58635;51.198;6.010;2023-03-17T04:44:08;6.53;;;2.40;;
70975;SDS011;58635;51.198;6.010;2023-03-17T04:46:34;4.68;;;2.17;;
70975;SDS011;58635;51.198;6.010;2023-03-17T04:49:00;4.78;;;2.30;;
70975;SDS011;58635;51.198;6.010;2023-03-17T04:51:26;5.82;;;2.72;;
70975;SDS011;58635;51.198;6.010;2023-03-17T04:53:51;5.32;;;2.28;;
70975;SDS011;58635;51.198;6.010;2023-03-17T04:56:17;6.97;;;3.08;;
70975;SDS011;58635;51.198;6.010;2023-03-17T04:58:43;9.70;;;2.55;;
70975;SDS011;58635;51.198;6.010;2023-03-17T05:01:08;11.00;;;2.72;;
70975;SDS011;58635;51.198;6.010;2023-03-17T05:03:34;6.95;;;2.67;;
70975;SDS011;58635;51.198;6.010;2023-03-17T05:06:00;9.30;;;3.10;;
70975;SDS011;58635;51.198;6.010;2023-03-17T05:08:27;10.25;;;3.38;;
70975;SDS011;58635;51.198;6.010;2023-03-17T05:10:56;10.18;;;3.20;;
70975;SDS011;58635;51.198;6.010;2023-03-17T05:13:22;7.97;;;3.13;;
70975;SDS011;58635;51.198;6.010;2023-03-17T05:15:49;7.18;;;2.92;;
70975;SDS011;58635;51.198;6.010;2023-03-17T05:18:16;6.57;;;3.28;;
70975;SDS011;58635;51.198;6.010;2023-03-17T05:20:42;7.25;;;2.92;;
70975;SDS011;58635;51.198;6.010;2023-03-17T05:23:08;5.70;;;2.78;;
70975;SDS011;58635;51.198;6.010;2023-03-17T05:25:34;5.53;;;2.42;;
70975;SDS011;58635;51.198;6.010;2023-03-17T05:27:59;5.32;;;2.35;;
70975;SDS011;58635;51.198;6.010;2023-03-17T05:30:25;7.68;;;2.70;;
70975;SDS011;58635;51.198;6.010;2023-03-17T05:32:51;4.85;;;2.40;;
70975;SDS011;58635;51.198;6.010;2023-03-17T05:35:17;4.72;;;2.15;;
70975;SDS011;58635;51.198;6.010;2023-03-17T05:37:42;7.05;;;2.00;;
70975;SDS011;58635;51.198;6.010;2023-03-17T05:40:09;5.63;;;2.20;;
70975;SDS011;58635;51.198;6.010;2023-03-17T05:42:36;5.25;;;2.00;;
70975;SDS011;58635;51.198;6.010;2023-03-17T05:45:02;7.13;;;2.10;;
70975;SDS011;58635;51.198;6.010;2023-03-17T05:47:29;4.93;;;1.95;;
70975;SDS011;58635;51.198;6.010;2023-03-17T05:49:56;5.32;;;2.00;;
70975;SDS011;58635;51.198;6.010;2023-03-17T05:52:21;5.50;;;1.98;;
70975;SDS011;58635;51.198;6.010;2023-03-17T05:54:46;4.15;;;2.03;;
70975;SDS011;58635;51.198;6.010;2023-03-17T05:57:13;3.38;;;1.80;;
70975;SDS011;58635;51.198;6.010;2023-03-17T05:59:39;6.15;;;2.20;;
70975;SDS011;58635;51.198;6.010;2023-03-17T06:02:05;7.50;;;2.33;;
70975;SDS011;58635;51.198;6.010;2023-03-17T06:04:30;7.57;;;2.30;;
70975;SDS011;58635;51.198;6.010;2023-03-17T06:06:56;4.50;;;2.28;;
70975;SDS011;58635;51.198;6.010;2023-03-17T06:09:22;5.68;;;2.35;;
70975;SDS011;58635;51.198;6.010;2023-03-17T06:11:48;5.45;;;2.70;;
70975;SDS011;58635;51.198;6.010;2023-03-17T06:14:13;5.22;;;2.83;;
70975;SDS011;58635;51.198;6.010;2023-03-17T06:16:38;6.15;;;2.75;;
70975;SDS011;58635;51.198;6.010;2023-03-17T06:19:04;7.32;;;3.10;;
70975;SDS011;58635;51.198;6.010;2023-03-17T06:21:30;6.65;;;2.30;;
70975;SDS011;58635;51.198;6.010;2023-03-17T06:23:55;7.03;;;2.55;;
70975;SDS011;58635;51.198;6.010;2023-03-17T06:26:21;7.18;;;3.08;;
70975;SDS011;58635;51.198;6.010;2023-03-17T06:28:46;9.73;;;2.90;;
70975;SDS011;58635;51.198;6.010;2023-03-17T06:31:11;8.23;;;2.65;;
70975;SDS011;58635;51.198;6.010;2023-03-17T06:33:37;7.07;;;2.60;;
70975;SDS011;58635;51.198;6.010;2023-03-17T06:36:02;8.82;;;3.03;;
70975;SDS011;58635;51.198;6.010;2023-03-17T06:38:28;10.43;;;3.00;;
70975;SDS011;58635;51.198;6.010;2023-03-17T06:40:54;9.48;;;2.88;;
70975;SDS011;58635;51.198;6.010;2023-03-17T06:43:19;7.53;;;3.05;;
70975;SDS011;58635;51.198;6.010;2023-03-17T06:45:46;7.40;;;3.03;;
70975;SDS011;58635;51.198;6.010;2023-03-17T06:48:11;6.72;;;2.90;;
70975;SDS011;58635;51.198;6.010;2023-03-17T06:50:37;7.75;;;2.88;;
70975;SDS011;58635;51.198;6.010;2023-03-17T06:53:02;10.35;;;3.20;;
70975;SDS011;58635;51.198;6.010;2023-03-17T06:55:28;11.43;;;3.63;;
70975;SDS011;58635;51.198;6.010;2023-03-17T06:57:54;6.35;;;3.83;;
70975;SDS011;58635;51.198;6.010;2023-03-17T07:00:19;10.38;;;5.80;;
70975;SDS011;58635;51.198;6.010;2023-03-17T07:02:46;11.88;;;7.40;;
70975;SDS011;58635;51.198;6.010;2023-03-17T07:05:12;13.13;;;8.27;;
70975;SDS011;58635;51.198;6.010;2023-03-17T07:07:38;14.20;;;9.18;;
70975;SDS011;58635;51.198;6.010;2023-03-17T07:10:04;14.02;;;7.78;;
70975;SDS011;58635;51.198;6.010;2023-03-17T07:12:30;14.52;;;5.72;;
70975;SDS011;58635;51.198;6.010;2023-03-17T07:14:56;12.10;;;4.07;;
70975;SDS011;58635;51.198;6.010;2023-03-17T07:17:23;13.38;;;3.60;;
70975;SDS011;58635;51.198;6.010;2023-03-17T07:19:49;14.32;;;3.58;;
70975;SDS011;58635;51.198;6.010;2023-03-17T07:22:14;9.05;;;3.25;;
70975;SDS011;58635;51.198;6.010;2023-03-17T07:24:40;7.80;;;3.40;;
70975;SDS011;58635;51.198;6.010;2023-03-17T07:27:07;6.95;;;3.25;;
70975;SDS011;58635;51.198;6.010;2023-03-17T07:29:32;7.55;;;3.40;;
70975;SDS011;58635;51.198;6.010;2023-03-17T07:31:58;6.03;;;3.22;;
70975;SDS011;58635;51.198;6.010;2023-03-17T07:34:24;5.82;;;2.75;;
70975;SDS011;58635;51.198;6.010;2023-03-17T07:36:49;10.63;;;3.28;;
70975;SDS011;58635;51.198;6.010;2023-03-17T07:39:15;5.28;;;2.50;;
70975;SDS011;58635;51.198;6.010;2023-03-17T07:41:41;7.57;;;3.08;;
70975;SDS011;58635;51.198;6.010;2023-03-17T07:44:08;6.20;;;2.60;;
70975;SDS011;58635;51.198;6.010;2023-03-17T07:46:33;6.63;;;2.60;;
70975;SDS011;58635;51.198;6.010;2023-03-17T07:48:59;5.05;;;2.40;;
70975;SDS011;58635;51.198;6.010;2023-03-17T07:51:25;4.38;;;2.30;;
70975;SDS011;58635;51.198;6.010;2023-03-17T07:53:52;4.50;;;2.58;;
70975;SDS011;58635;51.198;6.010;2023-03-17T07:56:19;4.55;;;2.28;;
70975;SDS011;58635;51.198;6.010;2023-03-17T07:58:45;5.88;;;2.50;;
70975;SDS011;58635;51.198;6.010;2023-03-17T08:01:11;6.38;;;2.25;;
70975;SDS011;58635;51.198;6.010;2023-03-17T08:03:36;4.63;;;2.20;;
70975;SDS011;58635;51.198;6.010;2023-03-17T08:06:03;4.18;;;2.33;;
70975;SDS011;58635;51.198;6.010;2023-03-17T08:08:30;4.82;;;2.15;;
70975;SDS011;58635;51.198;6.010;2023-03-17T08:11:02;8.15;;;2.58;;
70975;SDS011;58635;51.198;6.010;2023-03-17T08:13:29;5.80;;;2.28;;
70975;SDS011;58635;51.198;6.010;2023-03-17T08:15:55;7.35;;;2.90;;
70975;SDS011;58635;51.198;6.010;2023-03-17T08:18:21;5.20;;;2.90;;
70975;SDS011;58635;51.198;6.010;2023-03-17T08:20:47;7.10;;;3.28;;
70975;SDS011;58635;51.198;6.010;2023-03-17T08:23:13;7.22;;;3.22;;
70975;SDS011;58635;51.198;6.010;2023-03-17T08:25:38;7.57;;;3.13;;
70975;SDS011;58635;51.198;6.010;2023-03-17T08:28:04;6.75;;;3.30;;
70975;SDS011;58635;51.198;6.010;2023-03-17T08:30:29;8.48;;;3.17;;
70975;SDS011;58635;51.198;6.010;2023-03-17T08:32:56;8.02;;;3.22;;
70975;SDS011;58635;51.198;6.010;2023-03-17T08:35:22;6.32;;;2.90;;
70975;SDS011;58635;51.198;6.010;2023-03-17T08:37:47;6.43;;;3.20;;
70975;SDS011;58635;51.198;6.010;2023-03-17T08:40:14;8.23;;;3.05;;
70975;SDS011;58635;51.198;6.010;2023-03-17T08:42:41;5.82;;;2.50;;
70975;SDS011;58635;51.198;6.010;2023-03-17T08:45:07;5.68;;;2.42;;
70975;SDS011;58635;51.198;6.010;2023-03-17T08:47:34;6.97;;;2.45;;
70975;SDS011;58635;51.198;6.010;2023-03-17T08:50:00;6.25;;;2.67;;
70975;SDS011;58635;51.198;6.010;2023-03-17T08:52:26;4.85;;;2.80;;
70975;SDS011;58635;51.198;6.010;2023-03-17T08:54:52;5.30;;;3.10;;
70975;SDS011;58635;51.198;6.010;2023-03-17T08:57:18;6.07;;;2.80;;
70975;SDS011;58635;51.198;6.010;2023-03-17T08:59:44;6.70;;;2.47;;
70975;SDS011;58635;51.198;6.010;2023-03-17T09:02:10;6.72;;;2.50;;
70975;SDS011;58635;51.198;6.010;2023-03-17T09:04:36;7.45;;;2.85;;
70975;SDS011;58635;51.198;6.010;2023-03-17T09:07:02;7.97;;;3.33;;
70975;SDS011;58635;51.198;6.010;2023-03-17T09:09:30;6.70;;;2.53;;
70975;SDS011;58635;51.198;6.010;2023-03-17T09:11:57;6.00;;;2.50;;
70975;SDS011;58635;51.198;6.010;2023-03-17T09:14:23;11.23;;;2.92;;
70975;SDS011;58635;51.198;6.010;2023-03-17T09:16:48;5.38;;;2.42;;
70975;SDS011;58635;51.198;6.010;2023-03-17T09:19:15;8.15;;;2.60;;
70975;SDS011;58635;51.198;6.010;2023-03-17T09:21:42;5.18;;;2.67;;
70975;SDS011;58635;51.198;6.010;2023-03-17T09:24:08;6.28;;;2.75;;
70975;SDS011;58635;51.198;6.010;2023-03-17T09:26:34;8.20;;;2.67;;
70975;SDS011;58635;51.198;6.010;2023-03-17T09:29:00;4.28;;;2.30;;
70975;SDS011;58635;51.198;6.010;2023-03-17T09:31:26;6.13;;;2.47;;
70975;SDS011;58635;51.198;6.010;2023-03-17T09:33:51;5.30;;;2.60;;
70975;SDS011;58635;51.198;6.010;2023-03-17T09:36:17;7.25;;;2.83;;
70975;SDS011;58635;51.198;6.010;2023-03-17T09:38:43;6.13;;;2.30;;
70975;SDS011;58635;51.198;6.010;2023-03-17T09:43:46;7.60;;;2.30;;
70975;SDS011;58635;51.198;6.010;2023-03-17T09:51:31;5.93;;;2.25;;
70975;SDS011;58635;51.198;6.010;2023-03-17T09:53:59;5.15;;;2.70;;
70975;SDS011;58635;51.198;6.010;2023-03-17T09:56:27;7.60;;;2.47;;
70975;SDS011;58635;51.198;6.010;2023-03-17T09:59:06;4.72;;;2.50;;
70975;SDS011;58635;51.198;6.010;2023-03-17T10:01:51;5.50;;;2.50;;
70975;SDS011;58635;51.198;6.010;2023-03-17T10:04:17;5.05;;;2.45;;
70975;SDS011;58635;51.198;6.010;2023-03-17T10:06:43;6.00;;;2.63;;
70975;SDS011;58635;51.198;6.010;2023-03-17T10:09:24;4.78;;;2.47;;
70975;SDS011;58635;51.198;6.010;2023-03-17T10:12:09;6.20;;;2.63;;
70975;SDS011;58635;51.198;6.010;2023-03-17T10:14:53;5.43;;;2.60;;
70975;SDS011;58635;51.198;6.010;2023-03-17T10:17:27;5.35;;;2.58;;
70975;SDS011;58635;51.198;6.010;2023-03-17T10:22:46;5.25;;;3.08;;
70975;SDS011;58635;51.198;6.010;2023-03-17T10:31:01;6.35;;;2.40;;
70975;SDS011;58635;51.198;6.010;2023-03-17T10:33:48;5.05;;;2.42;;
70975;SDS011;58635;51.198;6.010;2023-03-17T10:36:30;7.40;;;3.03;;
70975;SDS011;58635;51.198;6.010;2023-03-17T10:39:02;5.68;;;2.70;;
70975;SDS011;58635;51.198;6.010;2023-03-17T10:41:30;6.97;;;2.53;;
70975;SDS011;58635;51.198;6.010;2023-03-17T10:43:58;7.35;;;4.88;;
70975;SDS011;58635;51.198;6.010;2023-03-17T10:46:25;7.65;;;3.00;;
70975;SDS011;58635;51.198;6.010;2023-03-17T10:48:52;4.68;;;2.50;;
70975;SDS011;58635;51.198;6.010;2023-03-17T10:51:29;4.22;;;2.20;;
70975;SDS011;58635;51.198;6.010;2023-03-17T10:54:00;5.63;;;2.40;;
70975;SDS011;58635;51.198;6.010;2023-03-17T10:56:32;7.05;;;2.72;;
70975;SDS011;58635;51.198;6.010;2023-03-17T10:59:12;5.45;;;2.20;;
70975;SDS011;58635;51.198;6.010;2023-03-17T11:01:44;5.30;;;2.00;;
70975;SDS011;58635;51.198;6.010;2023-03-17T11:07:05;5.05;;;2.17;;
70975;SDS011;58635;51.198;6.010;2023-03-17T11:09:35;4.88;;;2.00;;
70975;SDS011;58635;51.198;6.010;2023-03-17T11:12:06;7.25;;;2.55;;
70975;SDS011;58635;51.198;6.010;2023-03-17T11:17:16;4.90;;;2.10;;
70975;SDS011;58635;51.198;6.010;2023-03-17T11:20:02;6.53;;;2.30;;
70975;SDS011;58635;51.198;6.010;2023-03-17T11:22:48;4.75;;;1.77;;
70975;SDS011;58635;51.198;6.010;2023-03-17T11:25:20;3.88;;;1.90;;
70975;SDS011;58635;51.198;6.010;2023-03-17T11:27:58;4.55;;;2.20;;
70975;SDS011;58635;51.198;6.010;2023-03-17T11:30:34;5.53;;;2.00;;
70975;SDS011;58635;51.198;6.010;2023-03-17T11:33:21;5.10;;;2.03;;
70975;SDS011;58635;51.198;6.010;2023-03-17T11:35:57;4.88;;;2.20;;
70975;SDS011;58635;51.198;6.010;2023-03-17T11:38:32;5.45;;;2.30;;
70975;SDS011;58635;51.198;6.010;2023-03-17T11:44:11;6.75;;;2.92;;
70975;SDS011;58635;51.198;6.010;2023-03-17T11:55:22;7.00;;;2.15;;
70975;SDS011;58635;51.198;6.010;2023-03-17T11:58:00;4.57;;;2.03;;
70975;SDS011;58635;51.198;6.010;2023-03-17T12:05:28;5.20;;;2.45;;
70975;SDS011;58635;51.198;6.010;2023-03-17T12:08:02;9.10;;;3.08;;
70975;SDS011;58635;51.198;6.010;2023-03-17T12:10:35;8.35;;;3.08;;
70975;SDS011;58635;51.198;6.010;2023-03-17T12:18:19;8.50;;;4.07;;
70975;SDS011;58635;51.198;6.010;2023-03-17T12:20:52;10.05;;;4.00;;
70975;SDS011;58635;51.198;6.010;2023-03-17T12:26:17;6.63;;;3.20;;
70975;SDS011;58635;51.198;6.010;2023-03-17T12:28:47;9.60;;;3.30;;
70975;SDS011;58635;51.198;6.010;2023-03-17T12:31:33;4.97;;;2.60;;
70975;SDS011;58635;51.198;6.010;2023-03-17T12:36:44;6.30;;;2.35;;
70975;SDS011;58635;51.198;6.010;2023-03-17T12:39:13;6.60;;;2.85;;
70975;SDS011;58635;51.198;6.010;2023-03-17T12:41:57;5.95;;;2.45;;
70975;SDS011;58635;51.198;6.010;2023-03-17T12:47:24;6.38;;;2.90;;
70975;SDS011;58635;51.198;6.010;2023-03-17T12:53:07;6.25;;;2.42;;
70975;SDS011;58635;51.198;6.010;2023-03-17T12:55:36;6.55;;;2.40;;
70975;SDS011;58635;51.198;6.010;2023-03-17T12:58:03;5.60;;;2.50;;
70975;SDS011;58635;51.198;6.010;2023-03-17T13:00:36;4.63;;;2.17;;
70975;SDS011;58635;51.198;6.010;2023-03-17T13:03:21;7.40;;;2.00;;
70975;SDS011;58635;51.198;6.010;2023-03-17T13:05:50;5.00;;;2.40;;
70975;SDS011;58635;51.198;6.010;2023-03-17T13:08:23;5.97;;;2.40;;
70975;SDS011;58635;51.198;6.010;2023-03-17T13:11:13;5.07;;;2.50;;
70975;SDS011;58635;51.198;6.010;2023-03-17T13:16:27;6.65;;;2.75;;
70975;SDS011;58635;51.198;6.010;2023-03-17T13:25:10;5.65;;;2.33;;
70975;SDS011;58635;51.198;6.010;2023-03-17T13:27:39;8.27;;;2.10;;
70975;SDS011;58635;51.198;6.010;2023-03-17T13:29:58;9.80;;;2.20;;
70975;SDS011;58635;51.198;6.010;2023-03-17T13:32:53;7.50;;;2.10;;
70975;SDS011;58635;51.198;6.010;2023-03-17T13:46:31;6.32;;;2.40;;
70975;SDS011;58635;51.198;6.010;2023-03-17T13:51:43;5.13;;;1.90;;
70975;SDS011;58635;51.198;6.010;2023-03-17T13:56:54;5.55;;;1.90;;
70975;SDS011;58635;51.198;6.010;2023-03-17T14:02:11;6.45;;;2.10;;
70975;SDS011;58635;51.198;6.010;2023-03-17T14:04:50;5.38;;;2.20;;
70975;SDS011;58635;51.198;6.010;2023-03-17T14:07:19;6.20;;;1.75;;
70975;SDS011;58635;51.198;6.010;2023-03-17T14:09:50;5.50;;;2.58;;
70975;SDS011;58635;51.198;6.010;2023-03-17T14:12:31;7.55;;;3.00;;
70975;SDS011;58635;51.198;6.010;2023-03-17T14:18:19;7.07;;;2.28;;
70975;SDS011;58635;51.198;6.010;2023-03-17T14:20:55;5.32;;;2.20;;
70975;SDS011;58635;51.198;6.010;2023-03-17T14:23:23;9.50;;;2.20;;
70975;SDS011;58635;51.198;6.010;2023-03-17T14:25:50;5.20;;;2.40;;
70975;SDS011;58635;51.198;6.010;2023-03-17T14:28:20;6.05;;;2.22;;
70975;SDS011;58635;51.198;6.010;2023-03-17T14:30:58;6.53;;;2.30;;
70975;SDS011;58635;51.198;6.010;2023-03-17T14:33:29;7.05;;;2.10;;
70975;SDS011;58635;51.198;6.010;2023-03-17T14:35:57;5.40;;;2.20;;
70975;SDS011;58635;51.198;6.010;2023-03-17T14:38:26;5.18;;;2.30;;
70975;SDS011;58635;51.198;6.010;2023-03-17T14:43:39;8.15;;;2.60;;
70975;SDS011;58635;51.198;6.010;2023-03-17T14:46:06;6.75;;;2.38;;
70975;SDS011;58635;51.198;6.010;2023-03-17T14:48:40;6.53;;;2.55;;
70975;SDS011;58635;51.198;6.010;2023-03-17T14:51:29;4.78;;;2.08;;
70975;SDS011;58635;51.198;6.010;2023-03-17T14:54:00;6.68;;;2.42;;
70975;SDS011;58635;51.198;6.010;2023-03-17T14:56:33;13.55;;;2.83;;
70975;SDS011;58635;51.198;6.010;2023-03-17T14:59:03;5.28;;;2.55;;
70975;SDS011;58635;51.198;6.010;2023-03-17T15:01:41;7.32;;;2.47;;
70975;SDS011;58635;51.198;6.010;2023-03-17T15:04:12;8.65;;;2.60;;
70975;SDS011;58635;51.198;6.010;2023-03-17T15:06:48;8.95;;;2.67;;
70975;SDS011;58635;51.198;6.010;2023-03-17T15:11:51;7.50;;;2.05;;
70975;SDS011;58635;51.198;6.010;2023-03-17T15:16:56;6.88;;;2.10;;
70975;SDS011;58635;51.198;6.010;2023-03-17T15:19:56;6.82;;;1.95;;
70975;SDS011;58635;51.198;6.010;2023-03-17T15:22:26;6.65;;;2.22;;
70975;SDS011;58635;51.198;6.010;2023-03-17T15:24:59;7.00;;;2.15;;
70975;SDS011;58635;51.198;6.010;2023-03-17T15:27:26;5.63;;;2.03;;
70975;SDS011;58635;51.198;6.010;2023-03-17T15:29:53;7.95;;;2.08;;
70975;SDS011;58635;51.198;6.010;2023-03-17T15:32:19;9.07;;;2.20;;
70975;SDS011;58635;51.198;6.010;2023-03-17T15:34:47;5.82;;;2.00;;
70975;SDS011;58635;51.198;6.010;2023-03-17T15:37:21;6.82;;;1.95;;
70975;SDS011;58635;51.198;6.010;2023-03-17T15:39:51;6.97;;;2.10;;
70975;SDS011;58635;51.198;6.010;2023-03-17T15:42:19;5.88;;;2.08;;
70975;SDS011;58635;51.198;6.010;2023-03-17T15:44:46;5.60;;;2.05;;
70975;SDS011;58635;51.198;6.010;2023-03-17T15:47:15;6.20;;;1.98;;
70975;SDS011;58635;51.198;6.010;2023-03-17T15:49:43;7.05;;;2.40;;
70975;SDS011;58635;51.198;6.010;2023-03-17T15:52:17;4.45;;;2.00;;
70975;SDS011;58635;51.198;6.010;2023-03-17T15:54:50;5.45;;;2.03;;
70975;SDS011;58635;51.198;6.010;2023-03-17T15:57:17;3.92;;;1.80;;
70975;SDS011;58635;51.198;6.010;2023-03-17T15:59:42;3.85;;;1.83;;
70975;SDS011;58635;51.198;6.010;2023-03-17T16:02:28;4.15;;;1.60;;
70975;SDS011;58635;51.198;6.010;2023-03-17T16:04:56;4.13;;;1.70;;
70975;SDS011;58635;51.198;6.010;2023-03-17T16:07:25;7.22;;;1.77;;
70975;SDS011;58635;51.198;6.010;2023-03-17T16:09:51;5.35;;;1.75;;
70975;SDS011;58635;51.198;6.010;2023-03-17T16:12:16;7.47;;;1.92;;
70975;SDS011;58635;51.198;6.010;2023-03-17T16:14:42;4.40;;;1.75;;
70975;SDS011;58635;51.198;6.010;2023-03-17T16:17:28;5.18;;;1.90;;
70975;SDS011;58635;51.198;6.010;2023-03-17T16:19:56;4.28;;;1.50;;
70975;SDS011;58635;51.198;6.010;2023-03-17T16:22:36;4.55;;;1.65;;
70975;SDS011;58635;51.198;6.010;2023-03-17T16:25:16;5.55;;;1.40;;
70975;SDS011;58635;51.198;6.010;2023-03-17T16:27:45;4.65;;;1.80;;
70975;SDS011;58635;51.198;6.010;2023-03-17T16:30:16;5.57;;;1.70;;
70975;SDS011;58635;51.198;6.010;2023-03-17T16:32:43;3.42;;;1.40;;
70975;SDS011;58635;51.198;6.010;2023-03-17T16:38:01;3.70;;;1.83;;
70975;SDS011;58635;51.198;6.010;2023-03-17T16:40:27;5.45;;;1.88;;